Time;durP1;ratioP1;P1;durP2;ratioP2;P2;SDS_P1;SDS_P2;PMS_P1;PMS_P2;Temp;Humidity;BMP_temperature;BMP_pressure;BME280_temperature;BME280_humidity;BME280_pressure;Samples;Min_cycle;Max_cycle;Signal;HPM_P1;HPM_P2
2021/07/17 00:00:10;;;;;;;9.27;7.50;;;;;;;;;;1484546;40;20032;-62
2021/07/17 00:01:11;;;;;;;13.38;9.05;;;;;;;;;;1484592;40;20033;-61
2021/07/17 00:02:12;;;;;;;9.68;8.60;;;;;;;;;;1484610;40;20028;-62
2021/07/17 00:03:14;;;;;;;11.40;8.77;;;;;;;;;;1484489;40;20304;-62
2021/07/17 00:04:15;;;;;;;11.35;7.75;;;;;;;;;;1484547;40;20025;-60
2021/07/17 00:05:18;;;;;;;10.35;8.32;;;;;;;;;;1484579;40;20053;-62
2021/07/17 00:06:20;;;;;;;10.95;8.77;;;;;;;;;;1484476;40;20031;-61
2021/07/17 00:07:23;;;;;;;9.80;7.75;;;;;;;;;;1484634;40;20321;-62
2021/07/17 00:08:24;;;;;;;8.82;7.57;;;;;;;;;;1484576;40;20031;-61
2021/07/17 00:09:26;;;;;;;9.18;8.15;;;;;;;;;;1484546;40;20296;-62
2021/07/17 00:10:31;;;;;;;12.15;8.35;;;;;;;;;;1484330;40;20407;-61
2021/07/17 00:11:34;;;;;;;10.30;8.02;;;;;;;;;;1484674;40;20040;-62
2021/07/17 00:12:35;;;;;;;9.45;7.80;;;;;;;;;;1484367;40;20025;-62
2021/07/17 00:13:36;;;;;;;11.60;8.32;;;;;;;;;;1484462;40;20098;-61
2021/07/17 00:14:37;;;;;;;10.82;8.38;;;;;;;;;;1484569;40;20032;-62
2021/07/17 00:15:39;;;;;;;10.27;8.65;;;;;;;;;;1484447;40;20376;-62
2021/07/17 00:16:42;;;;;;;9.00;8.10;;;;;;;;;;1484456;40;20032;-62
2021/07/17 00:17:44;;;;;;;8.80;7.93;;;;;;;;;;1484537;40;20028;-62
2021/07/17 00:18:45;;;;;;;10.05;8.57;;;;;;;;;;1484409;40;20385;-62
2021/07/17 00:19:47;;;;;;;12.57;8.60;;;;;;;;;;1484304;40;20025;-62
2021/07/17 00:20:49;;;;;;;12.90;8.43;;;;;;;;;;1484450;40;20320;-60
2021/07/17 00:21:52;;;;;;;11.55;9.18;;;;;;;;;;1484397;40;20044;-62
2021/07/17 00:22:53;;;;;;;12.32;9.15;;;;;;;;;;1484396;40;20028;-61
2021/07/17 00:23:54;;;;;;;10.23;8.77;;;;;;;;;;1484532;40;20025;-62
2021/07/17 00:24:55;;;;;;;11.15;8.30;;;;;;;;;;1484332;40;20024;-62
2021/07/17 00:25:58;;;;;;;12.15;8.85;;;;;;;;;;1484461;40;20025;-62
2021/07/17 00:26:59;;;;;;;10.75;8.73;;;;;;;;;;1484426;40;20025;-60
2021/07/17 00:28:01;;;;;;;10.63;8.40;;;;;;;;;;1484495;40;20039;-62
2021/07/17 00:29:02;;;;;;;9.82;8.82;;;;;;;;;;1484424;40;20051;-60
2021/07/17 00:30:05;;;;;;;11.20;8.65;;;;;;;;;;1484407;40;20021;-60
2021/07/17 00:31:05;;;;;;;12.45;8.60;;;;;;;;;;1484348;40;20032;-60
2021/07/17 00:32:07;;;;;;;11.40;8.85;;;;;;;;;;1484615;40;20021;-60
2021/07/17 00:33:08;;;;;;;10.40;8.52;;;;;;;;;;1484336;40;20064;-60
2021/07/17 00:34:10;;;;;;;12.60;9.15;;;;;;;;;;1484440;40;20025;-62
2021/07/17 00:35:11;;;;;;;10.50;8.65;;;;;;;;;;1484344;40;20407;-62
2021/07/17 00:36:12;;;;;;;11.45;9.18;;;;;;;;;;1484562;40;20025;-61
2021/07/17 00:37:14;;;;;;;10.73;8.93;;;;;;;;;;1484383;40;20032;-60
2021/07/17 00:38:16;;;;;;;13.55;9.10;;;;;;;;;;1484282;40;20336;-61
2021/07/17 00:39:17;;;;;;;11.82;8.65;;;;;;;;;;1484516;40;20276;-61
2021/07/17 00:40:20;;;;;;;10.23;8.13;;;;;;;;;;1484498;40;20029;-60
2021/07/17 00:41:21;;;;;;;8.90;8.00;;;;;;;;;;1484464;40;20033;-62
2021/07/17 00:42:23;;;;;;;11.50;8.38;;;;;;;;;;1484278;40;20065;-62
2021/07/17 00:43:24;;;;;;;10.18;9.13;;;;;;;;;;1484245;40;20052;-60
2021/07/17 00:44:26;;;;;;;11.38;8.70;;;;;;;;;;1484603;40;20025;-61
2021/07/17 00:45:26;;;;;;;10.38;9.05;;;;;;;;;;1484430;40;20491;-61
2021/07/17 00:46:29;;;;;;;9.88;8.85;;;;;;;;;;1484509;40;20033;-61
2021/07/17 00:47:30;;;;;;;9.75;8.75;;;;;;;;;;1484275;40;20393;-60
2021/07/17 00:48:32;;;;;;;11.40;9.65;;;;;;;;;;1484437;40;20102;-60
2021/07/17 00:49:33;;;;;;;11.07;8.77;;;;;;;;;;1484268;40;20021;-60
2021/07/17 00:50:35;;;;;;;11.57;9.13;;;;;;;;;;1484304;40;20323;-60
2021/07/17 00:51:36;;;;;;;14.15;9.48;;;;;;;;;;1484324;40;20020;-61
2021/07/17 00:52:40;;;;;;;10.50;9.02;;;;;;;;;;1484256;40;20017;-62
2021/07/17 00:53:41;;;;;;;10.60;8.77;;;;;;;;;;1484273;40;20036;-62
2021/07/17 00:54:45;;;;;;;10.90;8.30;;;;;;;;;;1484477;40;20400;-60
2021/07/17 00:55:48;;;;;;;10.90;9.30;;;;;;;;;;1484254;40;20293;-60
2021/07/17 00:56:52;;;;;;;12.20;9.52;;;;;;;;;;1484273;40;20072;-61
2021/07/17 00:57:53;;;;;;;11.18;9.90;;;;;;;;;;1484242;40;20025;-62
2021/07/17 00:58:59;;;;;;;12.32;9.95;;;;;;;;;;1484391;40;20388;-61
2021/07/17 01:00:02;;;;;;;12.90;10.20;;;;;;;;;;1484289;40;20029;-62
2021/07/17 01:01:04;;;;;;;10.82;9.73;;;;;;;;;;1484401;40;20039;-61
2021/07/17 01:02:05;;;;;;;12.00;9.95;;;;;;;;;;1484349;40;20021;-62
2021/07/17 01:03:08;;;;;;;10.68;9.57;;;;;;;;;;1484851;40;20025;-57
2021/07/17 01:04:11;;;;;;;12.57;10.30;;;;;;;;;;1484349;40;20028;-58
2021/07/17 01:05:14;;;;;;;12.55;9.63;;;;;;;;;;1484227;40;20025;-58
2021/07/17 01:06:19;;;;;;;11.13;9.68;;;;;;;;;;1484218;40;20377;-58
2021/07/17 01:07:21;;;;;;;10.52;9.48;;;;;;;;;;1484269;40;20036;-58
2021/07/17 01:08:23;;;;;;;11.18;9.90;;;;;;;;;;1484350;40;20025;-58
2021/07/17 01:09:25;;;;;;;10.80;9.73;;;;;;;;;;1484310;40;20031;-58
2021/07/17 01:10:27;;;;;;;12.32;10.13;;;;;;;;;;1484339;40;20032;-58
2021/07/17 01:11:29;;;;;;;12.45;10.32;;;;;;;;;;1484320;40;20108;-58
2021/07/17 01:12:30;;;;;;;11.25;10.10;;;;;;;;;;1484276;40;20021;-58
2021/07/17 01:13:39;;;;;;;12.05;10.20;;;;;;;;;;1484517;40;20057;-58
2021/07/17 01:14:40;;;;;;;11.60;10.07;;;;;;;;;;1484313;40;20025;-58
2021/07/17 01:15:42;;;;;;;12.18;10.35;;;;;;;;;;1484201;40;20024;-58
2021/07/17 01:16:46;;;;;;;12.00;10.30;;;;;;;;;;1484237;40;20041;-60
2021/07/17 01:17:49;;;;;;;11.77;10.57;;;;;;;;;;1484438;40;20094;-58
2021/07/17 01:18:50;;;;;;;13.18;10.70;;;;;;;;;;1484132;40;20021;-58
2021/07/17 01:19:52;;;;;;;13.60;10.52;;;;;;;;;;1484235;40;20024;-58
2021/07/17 01:20:57;;;;;;;13.82;10.25;;;;;;;;;;1484329;40;20053;-58
2021/07/17 01:22:09;;;;;;;13.80;11.30;;;;;;;;;;1484472;40;20044;-58
2021/07/17 01:23:12;;;;;;;13.85;11.10;;;;;;;;;;1484429;40;20285;-58
2021/07/17 01:24:13;;;;;;;12.23;10.93;;;;;;;;;;1484173;40;20139;-58
2021/07/17 01:25:16;;;;;;;14.05;10.90;;;;;;;;;;1484212;40;20367;-58
2021/07/17 01:26:17;;;;;;;14.95;10.68;;;;;;;;;;1484250;40;20021;-58
2021/07/17 01:27:19;;;;;;;14.82;11.15;;;;;;;;;;1484322;40;20032;-60
2021/07/17 01:28:20;;;;;;;13.68;10.93;;;;;;;;;;1484209;40;20293;-60
2021/07/17 01:29:22;;;;;;;12.93;10.93;;;;;;;;;;1484301;40;20028;-60
2021/07/17 01:30:25;;;;;;;13.88;10.10;;;;;;;;;;1484273;40;20032;-60
2021/07/17 01:31:39;;;;;;;13.38;11.32;;;;;;;;;;1484789;40;20060;-60
2021/07/17 01:32:40;;;;;;;13.25;11.43;;;;;;;;;;1484959;40;20036;-58
2021/07/17 01:33:42;;;;;;;12.18;10.65;;;;;;;;;;1484792;40;20073;-60
2021/07/17 01:34:43;;;;;;;14.20;11.15;;;;;;;;;;1484837;40;20296;-58
2021/07/17 01:35:45;;;;;;;14.25;10.88;;;;;;;;;;1484906;40;20029;-58
2021/07/17 01:36:46;;;;;;;15.95;11.10;;;;;;;;;;1484969;40;20021;-58
2021/07/17 01:37:49;;;;;;;13.77;11.38;;;;;;;;;;1484944;40;20036;-60
2021/07/17 01:38:50;;;;;;;13.88;11.52;;;;;;;;;;1484752;40;20025;-60
2021/07/17 01:39:52;;;;;;;12.93;10.88;;;;;;;;;;1485224;40;20262;-59
2021/07/17 01:40:53;;;;;;;13.45;11.38;;;;;;;;;;1484887;40;20036;-60
2021/07/17 01:41:55;;;;;;;14.50;12.38;;;;;;;;;;1485017;40;20025;-60
2021/07/17 01:42:57;;;;;;;16.15;11.50;;;;;;;;;;1484883;40;20021;-60
2021/07/17 01:43:59;;;;;;;16.05;12.27;;;;;;;;;;1484931;40;20098;-59
2021/07/17 01:45:00;;;;;;;15.05;11.38;;;;;;;;;;1484913;40;20031;-60
2021/07/17 01:46:03;;;;;;;13.70;11.43;;;;;;;;;;1485027;40;20299;-58
2021/07/17 01:47:03;;;;;;;14.80;12.15;;;;;;;;;;1484909;40;20025;-59
2021/07/17 01:48:06;;;;;;;15.82;12.15;;;;;;;;;;1485066;40;20385;-60
2021/07/17 01:49:07;;;;;;;14.50;10.77;;;;;;;;;;1484774;40;20033;-58
2021/07/17 01:50:10;;;;;;;17.00;12.55;;;;;;;;;;1485017;40;20025;-60
2021/07/17 01:51:11;;;;;;;15.75;11.85;;;;;;;;;;1484837;40;20117;-58
2021/07/17 01:52:13;;;;;;;16.25;11.68;;;;;;;;;;1484984;40;20335;-58
2021/07/17 01:53:15;;;;;;;13.98;11.50;;;;;;;;;;1484859;40;20288;-60
2021/07/17 01:54:17;;;;;;;17.77;11.80;;;;;;;;;;1484985;40;20466;-59
2021/07/17 01:55:18;;;;;;;16.02;12.73;;;;;;;;;;1484903;40;20032;-58
2021/07/17 01:56:20;;;;;;;15.20;11.10;;;;;;;;;;1484862;40;20036;-58
2021/07/17 01:57:20;;;;;;;16.13;12.20;;;;;;;;;;1484780;40;20021;-58
2021/07/17 01:58:22;;;;;;;14.57;11.77;;;;;;;;;;1484767;40;20029;-60
2021/07/17 01:59:23;;;;;;;15.30;11.70;;;;;;;;;;1484842;40;20059;-58
2021/07/17 02:00:25;;;;;;;15.48;12.15;;;;;;;;;;1484915;40;20067;-59
2021/07/17 02:01:26;;;;;;;12.82;11.43;;;;;;;;;;1484757;40;20328;-58
2021/07/17 02:02:28;;;;;;;15.15;12.50;;;;;;;;;;1484913;40;20029;-58
2021/07/17 02:03:28;;;;;;;17.48;12.10;;;;;;;;;;1484970;40;20024;-60
2021/07/17 02:04:31;;;;;;;14.50;12.65;;;;;;;;;;1484885;40;20094;-58
2021/07/17 02:05:32;;;;;;;15.48;12.52;;;;;;;;;;1484847;40;20284;-58
2021/07/17 02:06:34;;;;;;;17.02;12.75;;;;;;;;;;1484917;40;20024;-60
2021/07/17 02:07:35;;;;;;;14.63;11.95;;;;;;;;;;1484805;40;20288;-58
2021/07/17 02:08:39;;;;;;;15.80;12.32;;;;;;;;;;1484971;40;20025;-58
2021/07/17 02:09:40;;;;;;;14.70;12.40;;;;;;;;;;1484807;40;20024;-58
2021/07/17 02:10:42;;;;;;;18.02;13.25;;;;;;;;;;1484874;40;20069;-60
2021/07/17 02:11:43;;;;;;;16.70;12.40;;;;;;;;;;1484280;40;20025;-58
2021/07/17 02:12:56;;;;;;;17.52;12.27;;;;;;;;;;1484441;40;20036;-58
2021/07/17 02:13:57;;;;;;;17.58;12.38;;;;;;;;;;1484814;40;20320;-58
2021/07/17 02:14:59;;;;;;;16.00;12.30;;;;;;;;;;1484937;40;20021;-58
2021/07/17 02:16:01;;;;;;;14.45;12.10;;;;;;;;;;1484806;40;20016;-58
2021/07/17 02:17:04;;;;;;;15.80;13.35;;;;;;;;;;1484886;40;20027;-58
2021/07/17 02:18:05;;;;;;;15.50;12.45;;;;;;;;;;1484691;40;20393;-58
2021/07/17 02:19:17;;;;;;;15.18;12.95;;;;;;;;;;1484797;40;20025;-58
2021/07/17 02:20:18;;;;;;;15.98;12.48;;;;;;;;;;1484896;40;20381;-60
2021/07/17 02:21:21;;;;;;;15.73;12.65;;;;;;;;;;1484709;40;20029;-58
2021/07/17 02:22:21;;;;;;;14.48;12.63;;;;;;;;;;1484743;40;20035;-60
2021/07/17 02:23:23;;;;;;;15.90;12.85;;;;;;;;;;1484828;40;20027;-60
2021/07/17 02:24:26;;;;;;;15.18;12.48;;;;;;;;;;1484733;40;20029;-58
2021/07/17 02:25:28;;;;;;;14.98;12.63;;;;;;;;;;1484863;40;20381;-60
2021/07/17 02:26:29;;;;;;;16.55;12.82;;;;;;;;;;1484624;40;20025;-60
2021/07/17 02:27:31;;;;;;;17.73;13.98;;;;;;;;;;1484741;40;20024;-58
2021/07/17 02:28:32;;;;;;;18.65;13.57;;;;;;;;;;1484799;40;20028;-58
2021/07/17 02:29:33;;;;;;;17.20;12.93;;;;;;;;;;1484114;40;20044;-58
2021/07/17 02:30:35;;;;;;;18.90;13.40;;;;;;;;;;1484172;40;20296;-59
2021/07/17 02:31:37;;;;;;;15.60;12.57;;;;;;;;;;1484899;40;20027;-58
2021/07/17 02:32:38;;;;;;;15.80;13.10;;;;;;;;;;1484836;40;20381;-60
2021/07/17 02:33:40;;;;;;;18.13;13.27;;;;;;;;;;1484793;40;20021;-58
2021/07/17 02:34:40;;;;;;;14.65;12.55;;;;;;;;;;1484697;40;20020;-58
2021/07/17 02:35:42;;;;;;;16.88;12.68;;;;;;;;;;1484774;40;20285;-58
2021/07/17 02:36:43;;;;;;;15.60;13.38;;;;;;;;;;1484750;40;20032;-58
2021/07/17 02:37:45;;;;;;;15.63;13.50;;;;;;;;;;1484856;40;20377;-58
2021/07/17 02:38:45;;;;;;;19.55;13.90;;;;;;;;;;1484653;40;20021;-58
2021/07/17 02:39:50;;;;;;;20.20;13.38;;;;;;;;;;1484945;40;20035;-58
2021/07/17 02:40:51;;;;;;;14.63;12.30;;;;;;;;;;1484611;40;20029;-58
2021/07/17 02:41:53;;;;;;;15.27;12.57;;;;;;;;;;1484817;40;20032;-58
2021/07/17 02:42:54;;;;;;;15.23;12.25;;;;;;;;;;1484506;40;20025;-58
2021/07/17 02:43:56;;;;;;;14.43;11.93;;;;;;;;;;1484857;40;20029;-58
2021/07/17 02:44:57;;;;;;;14.85;12.18;;;;;;;;;;1484751;40;20025;-60
2021/07/17 02:45:58;;;;;;;19.85;12.75;;;;;;;;;;1484805;40;20040;-60
2021/07/17 02:46:59;;;;;;;15.68;13.30;;;;;;;;;;1484654;40;20036;-58
2021/07/17 02:48:01;;;;;;;17.40;12.70;;;;;;;;;;1484739;40;20036;-60
2021/07/17 02:49:02;;;;;;;18.10;13.73;;;;;;;;;;1484635;40;20020;-58
2021/07/17 02:50:04;;;;;;;16.67;12.88;;;;;;;;;;1484896;40;20025;-58
2021/07/17 02:51:05;;;;;;;16.27;12.98;;;;;;;;;;1484522;40;20029;-58
2021/07/17 02:52:07;;;;;;;16.35;12.70;;;;;;;;;;1484655;40;20029;-58
2021/07/17 02:53:09;;;;;;;18.60;13.68;;;;;;;;;;1484608;40;20146;-58
2021/07/17 02:54:11;;;;;;;15.38;13.52;;;;;;;;;;1484716;40;20057;-58
2021/07/17 02:55:14;;;;;;;17.67;13.35;;;;;;;;;;1484802;40;20029;-58
2021/07/17 02:56:16;;;;;;;19.40;13.70;;;;;;;;;;1484808;40;20397;-58
2021/07/17 02:57:16;;;;;;;19.98;12.98;;;;;;;;;;1484608;40;20025;-58
2021/07/17 02:58:18;;;;;;;17.17;12.40;;;;;;;;;;1484956;40;20032;-58
2021/07/17 02:59:19;;;;;;;15.20;12.98;;;;;;;;;;1484584;40;20021;-58
2021/07/17 03:00:21;;;;;;;16.95;13.27;;;;;;;;;;1484771;40;20288;-58
2021/07/17 03:01:22;;;;;;;17.25;13.15;;;;;;;;;;1484782;40;20017;-58
2021/07/17 03:02:24;;;;;;;18.17;13.20;;;;;;;;;;1484783;40;20258;-58
2021/07/17 03:03:25;;;;;;;18.15;14.07;;;;;;;;;;1484682;40;20389;-58
2021/07/17 03:04:26;;;;;;;17.70;13.30;;;;;;;;;;1484809;40;20029;-60
2021/07/17 03:05:27;;;;;;;14.90;12.70;;;;;;;;;;1484596;40;20021;-60
2021/07/17 03:06:29;;;;;;;16.10;13.38;;;;;;;;;;1484813;40;20405;-58
2021/07/17 03:07:30;;;;;;;16.80;12.90;;;;;;;;;;1484585;40;20021;-58
2021/07/17 03:08:31;;;;;;;16.65;13.60;;;;;;;;;;1484926;40;20033;-57
2021/07/17 03:09:32;;;;;;;15.55;12.82;;;;;;;;;;1484593;40;20029;-58
2021/07/17 03:10:35;;;;;;;18.48;13.85;;;;;;;;;;1484733;40;20029;-58
2021/07/17 03:11:36;;;;;;;17.48;13.50;;;;;;;;;;1484704;40;20420;-58
2021/07/17 03:12:38;;;;;;;20.40;13.68;;;;;;;;;;1484687;40;20025;-58
2021/07/17 03:13:39;;;;;;;17.55;13.48;;;;;;;;;;1484691;40;20032;-58
2021/07/17 03:14:41;;;;;;;15.85;12.40;;;;;;;;;;1484865;40;20036;-58
2021/07/17 03:15:42;;;;;;;16.10;12.82;;;;;;;;;;1484760;40;20028;-58
2021/07/17 03:16:44;;;;;;;19.25;13.70;;;;;;;;;;1484813;40;20106;-60
2021/07/17 03:17:45;;;;;;;18.85;13.82;;;;;;;;;;1484052;40;20029;-58
2021/07/17 03:18:47;;;;;;;18.00;13.68;;;;;;;;;;1484283;40;20024;-58
2021/07/17 03:19:48;;;;;;;15.93;13.57;;;;;;;;;;1484525;40;20032;-58
2021/07/17 03:20:50;;;;;;;18.10;14.25;;;;;;;;;;1484575;40;20049;-60
2021/07/17 03:21:51;;;;;;;19.02;14.38;;;;;;;;;;1484890;40;20021;-58
2021/07/17 03:22:53;;;;;;;21.25;15.05;;;;;;;;;;1484571;40;20020;-58
2021/07/17 03:23:54;;;;;;;17.58;14.45;;;;;;;;;;1484577;40;20039;-59
2021/07/17 03:24:56;;;;;;;19.08;14.35;;;;;;;;;;1484785;40;20029;-60
2021/07/17 03:25:58;;;;;;;17.58;14.05;;;;;;;;;;1484569;40;20021;-58
2021/07/17 03:27:00;;;;;;;19.80;15.05;;;;;;;;;;1484839;40;20293;-58
2021/07/17 03:28:00;;;;;;;20.45;13.43;;;;;;;;;;1484599;40;20024;-58
2021/07/17 03:29:02;;;;;;;21.13;14.43;;;;;;;;;;1484685;40;20425;-58
2021/07/17 03:30:05;;;;;;;19.50;14.25;;;;;;;;;;1484730;40;20028;-58
2021/07/17 03:31:07;;;;;;;17.70;13.82;;;;;;;;;;1484634;40;20300;-60
2021/07/17 03:32:08;;;;;;;17.10;14.40;;;;;;;;;;1484662;40;20284;-58
2021/07/17 03:33:09;;;;;;;17.20;14.10;;;;;;;;;;1484804;40;20032;-60
2021/07/17 03:34:10;;;;;;;18.73;14.30;;;;;;;;;;1484520;40;20025;-58
2021/07/17 03:35:13;;;;;;;17.00;13.82;;;;;;;;;;1484786;40;20035;-58
2021/07/17 03:36:14;;;;;;;18.42;14.13;;;;;;;;;;1484521;40;20419;-60
2021/07/17 03:37:15;;;;;;;21.48;14.43;;;;;;;;;;1484653;40;20029;-58
2021/07/17 03:38:17;;;;;;;18.05;13.90;;;;;;;;;;1484865;40;20029;-58
2021/07/17 03:39:18;;;;;;;20.55;15.32;;;;;;;;;;1484501;40;20029;-58
2021/07/17 03:40:20;;;;;;;19.77;15.30;;;;;;;;;;1484654;40;20032;-58
2021/07/17 03:41:22;;;;;;;17.25;14.63;;;;;;;;;;1484537;40;20029;-58
2021/07/17 03:42:24;;;;;;;17.95;15.05;;;;;;;;;;1484883;40;20041;-60
2021/07/17 03:43:25;;;;;;;17.92;14.25;;;;;;;;;;1484503;40;20031;-58
2021/07/17 03:44:27;;;;;;;18.48;14.80;;;;;;;;;;1484746;40;20400;-58
2021/07/17 03:45:28;;;;;;;21.20;14.68;;;;;;;;;;1484539;40;20036;-58
2021/07/17 03:46:30;;;;;;;19.30;14.38;;;;;;;;;;1484666;40;20357;-58
2021/07/17 03:47:31;;;;;;;18.10;13.68;;;;;;;;;;1484496;40;20032;-58
2021/07/17 03:48:33;;;;;;;22.30;15.18;;;;;;;;;;1484655;40;20032;-60
2021/07/17 03:49:34;;;;;;;17.00;13.10;;;;;;;;;;1484491;40;20032;-58
2021/07/17 03:50:36;;;;;;;17.65;14.07;;;;;;;;;;1484629;40;20407;-60
2021/07/17 03:51:36;;;;;;;18.80;13.90;;;;;;;;;;1484514;40;20025;-60
2021/07/17 03:52:38;;;;;;;16.45;13.95;;;;;;;;;;1484532;40;20273;-60
2021/07/17 03:53:39;;;;;;;20.35;14.15;;;;;;;;;;1484527;40;20395;-60
2021/07/17 03:54:41;;;;;;;18.55;14.73;;;;;;;;;;1484240;40;20029;-58
2021/07/17 03:55:42;;;;;;;20.08;14.90;;;;;;;;;;1483981;40;20029;-58
2021/07/17 03:56:45;;;;;;;18.58;14.32;;;;;;;;;;1484198;40;20021;-59
2021/07/17 03:57:46;;;;;;;17.92;14.90;;;;;;;;;;1484437;40;20025;-58
2021/07/17 03:58:47;;;;;;;19.50;15.10;;;;;;;;;;1484636;40;20290;-58
2021/07/17 03:59:48;;;;;;;21.27;15.05;;;;;;;;;;1484565;40;20288;-58
2021/07/17 04:00:50;;;;;;;19.35;15.02;;;;;;;;;;1484575;40;20044;-60
2021/07/17 04:01:51;;;;;;;18.33;15.05;;;;;;;;;;1484582;40;20031;-58
2021/07/17 04:02:53;;;;;;;21.35;15.25;;;;;;;;;;1484624;40;20288;-58
2021/07/17 04:03:54;;;;;;;20.13;15.23;;;;;;;;;;1484413;40;20415;-58
2021/07/17 04:04:57;;;;;;;20.15;15.00;;;;;;;;;;1484411;40;20028;-58
2021/07/17 04:05:58;;;;;;;18.45;15.10;;;;;;;;;;1484563;40;20024;-59
2021/07/17 04:07:00;;;;;;;17.48;14.32;;;;;;;;;;1484493;40;20126;-58
2021/07/17 04:08:02;;;;;;;21.13;14.93;;;;;;;;;;1484511;40;20021;-58
2021/07/17 04:09:03;;;;;;;19.52;15.18;;;;;;;;;;1484589;40;20021;-58
2021/07/17 04:10:08;;;;;;;19.17;15.32;;;;;;;;;;1484674;40;20031;-58
2021/07/17 04:11:09;;;;;;;17.35;13.65;;;;;;;;;;1484387;40;20033;-59
2021/07/17 04:12:12;;;;;;;22.33;15.35;;;;;;;;;;1484576;40;20405;-58
2021/07/17 04:13:13;;;;;;;17.60;14.48;;;;;;;;;;1484373;40;20025;-60
2021/07/17 04:14:15;;;;;;;20.52;15.07;;;;;;;;;;1484565;40;20381;-60
2021/07/17 04:15:16;;;;;;;19.48;15.68;;;;;;;;;;1484490;40;20032;-58
2021/07/17 04:16:18;;;;;;;19.83;14.57;;;;;;;;;;1484551;40;20048;-58
2021/07/17 04:17:19;;;;;;;18.08;15.00;;;;;;;;;;1484626;40;20036;-58
2021/07/17 04:18:21;;;;;;;18.48;15.20;;;;;;;;;;1484578;40;20288;-58
2021/07/17 04:19:21;;;;;;;23.40;15.90;;;;;;;;;;1484345;40;20021;-58
2021/07/17 04:20:23;;;;;;;20.75;16.35;;;;;;;;;;1484549;40;20025;-60
2021/07/17 04:21:25;;;;;;;19.85;16.40;;;;;;;;;;1484405;40;20025;-58
2021/07/17 04:22:27;;;;;;;20.85;16.35;;;;;;;;;;1484619;40;20060;-58
2021/07/17 04:23:28;;;;;;;20.73;16.20;;;;;;;;;;1484368;40;20024;-60
2021/07/17 04:24:30;;;;;;;21.88;16.00;;;;;;;;;;1484664;40;20029;-58
2021/07/17 04:25:31;;;;;;;22.08;16.55;;;;;;;;;;1484387;40;20300;-58
2021/07/17 04:26:33;;;;;;;19.80;15.98;;;;;;;;;;1483826;40;20079;-58
2021/07/17 04:27:35;;;;;;;23.05;16.85;;;;;;;;;;1483906;40;20032;-58
2021/07/17 04:28:37;;;;;;;20.63;16.40;;;;;;;;;;1484611;40;20036;-58
2021/07/17 04:29:38;;;;;;;21.75;16.20;;;;;;;;;;1484448;40;20025;-58
2021/07/17 04:30:40;;;;;;;23.13;17.17;;;;;;;;;;1484433;40;20048;-60
2021/07/17 04:31:41;;;;;;;26.52;18.38;;;;;;;;;;1484350;40;20028;-58
2021/07/17 04:32:42;;;;;;;26.95;17.98;;;;;;;;;;1484603;40;20044;-60
2021/07/17 04:33:43;;;;;;;25.70;18.58;;;;;;;;;;1484338;40;20028;-60
2021/07/17 04:34:45;;;;;;;25.83;18.02;;;;;;;;;;1484497;40;20048;-60
2021/07/17 04:35:46;;;;;;;26.92;18.42;;;;;;;;;;1484376;40;20021;-58
2021/07/17 04:36:48;;;;;;;24.15;17.80;;;;;;;;;;1484560;40;20028;-58
2021/07/17 04:37:49;;;;;;;26.23;18.63;;;;;;;;;;1484394;40;20029;-59
2021/07/17 04:38:50;;;;;;;25.40;19.38;;;;;;;;;;1484375;40;20296;-59
2021/07/17 04:39:52;;;;;;;27.50;20.02;;;;;;;;;;1484528;40;20029;-60
2021/07/17 04:40:53;;;;;;;31.20;19.40;;;;;;;;;;1484458;40;20415;-59
2021/07/17 04:41:55;;;;;;;26.63;18.98;;;;;;;;;;1484555;40;20021;-58
2021/07/17 04:42:57;;;;;;;25.73;17.95;;;;;;;;;;1484308;40;20021;-58
2021/07/17 04:43:59;;;;;;;28.15;19.85;;;;;;;;;;1484319;40;20021;-58
2021/07/17 04:44:59;;;;;;;26.30;19.88;;;;;;;;;;1484343;40;20036;-58
2021/07/17 04:46:01;;;;;;;27.63;20.20;;;;;;;;;;1484501;40;20028;-59
2021/07/17 04:47:03;;;;;;;32.10;20.80;;;;;;;;;;1484357;40;20036;-58
2021/07/17 04:48:06;;;;;;;33.10;20.63;;;;;;;;;;1484432;40;20025;-58
2021/07/17 04:49:06;;;;;;;27.92;21.05;;;;;;;;;;1484457;40;20404;-58
2021/07/17 04:50:10;;;;;;;31.35;20.73;;;;;;;;;;1484524;40;20025;-58
2021/07/17 04:51:11;;;;;;;31.10;20.95;;;;;;;;;;1484218;40;20308;-58
2021/07/17 04:52:12;;;;;;;31.83;21.33;;;;;;;;;;1484452;40;20028;-58
2021/07/17 04:53:13;;;;;;;31.90;22.00;;;;;;;;;;1484390;40;20020;-60
2021/07/17 04:54:15;;;;;;;34.17;21.63;;;;;;;;;;1484384;40;20407;-58
2021/07/17 04:55:16;;;;;;;35.10;21.75;;;;;;;;;;1484360;40;20025;-58
2021/07/17 04:56:18;;;;;;;35.72;21.27;;;;;;;;;;1484396;40;20056;-58
2021/07/17 04:57:18;;;;;;;33.35;21.80;;;;;;;;;;1484232;40;20021;-58
2021/07/17 04:58:22;;;;;;;34.13;21.65;;;;;;;;;;1484321;40;20017;-58
2021/07/17 04:59:22;;;;;;;33.90;22.30;;;;;;;;;;1484259;40;20025;-57
2021/07/17 05:00:24;;;;;;;36.60;22.92;;;;;;;;;;1484372;40;20025;-59
2021/07/17 05:01:25;;;;;;;35.92;21.73;;;;;;;;;;1484342;40;20025;-58
2021/07/17 05:02:27;;;;;;;34.47;21.17;;;;;;;;;;1484205;40;20393;-58
2021/07/17 05:03:28;;;;;;;30.58;20.80;;;;;;;;;;1484286;40;20029;-60
2021/07/17 05:04:29;;;;;;;35.00;22.08;;;;;;;;;;1484289;40;20025;-60
2021/07/17 05:05:30;;;;;;;35.95;22.35;;;;;;;;;;1484616;40;20036;-59
2021/07/17 05:06:32;;;;;;;35.58;22.60;;;;;;;;;;1484991;40;20296;-60
2021/07/17 05:07:33;;;;;;;39.72;22.70;;;;;;;;;;1484970;40;20032;-59
2021/07/17 05:08:35;;;;;;;38.20;24.23;;;;;;;;;;1485174;40;20028;-58
2021/07/17 05:09:35;;;;;;;41.60;23.25;;;;;;;;;;1484861;40;20025;-58
2021/07/17 05:10:37;;;;;;;40.60;22.73;;;;;;;;;;1485044;40;20369;-59
2021/07/17 05:11:39;;;;;;;36.97;23.20;;;;;;;;;;1484954;40;20025;-60
2021/07/17 05:12:42;;;;;;;37.45;23.33;;;;;;;;;;1484867;40;20025;-58
2021/07/17 05:13:44;;;;;;;37.78;23.10;;;;;;;;;;1484877;40;20029;-58
2021/07/17 05:14:46;;;;;;;36.65;22.95;;;;;;;;;;1484807;40;20025;-60
2021/07/17 05:15:47;;;;;;;40.55;23.17;;;;;;;;;;1484946;40;20031;-59
2021/07/17 05:16:49;;;;;;;35.97;22.58;;;;;;;;;;1484974;40;20054;-58
2021/07/17 05:17:50;;;;;;;41.08;23.58;;;;;;;;;;1484838;40;20032;-60
2021/07/17 05:18:52;;;;;;;36.45;24.73;;;;;;;;;;1485056;40;20064;-58
2021/07/17 05:19:52;;;;;;;41.30;26.27;;;;;;;;;;1484915;40;20427;-58
2021/07/17 05:20:54;;;;;;;40.90;25.38;;;;;;;;;;1485072;40;20055;-59
2021/07/17 05:21:55;;;;;;;41.13;24.20;;;;;;;;;;1484526;40;20025;-60
2021/07/17 05:22:57;;;;;;;40.35;24.80;;;;;;;;;;1484508;40;20427;-58
2021/07/17 05:23:57;;;;;;;44.83;26.05;;;;;;;;;;1484892;40;20032;-58
2021/07/17 05:24:59;;;;;;;44.33;25.38;;;;;;;;;;1485006;40;20036;-60
2021/07/17 05:26:00;;;;;;;47.15;26.10;;;;;;;;;;1484810;40;20024;-58
2021/07/17 05:27:02;;;;;;;43.13;25.95;;;;;;;;;;1485224;40;20254;-58
2021/07/17 05:28:03;;;;;;;47.45;26.58;;;;;;;;;;1485143;40;20025;-60
2021/07/17 05:29:07;;;;;;;45.25;26.05;;;;;;;;;;1484835;40;20073;-58
2021/07/17 05:30:08;;;;;;;45.25;26.63;;;;;;;;;;1484829;40;20296;-59
2021/07/17 05:31:10;;;;;;;44.33;26.58;;;;;;;;;;1484981;40;20063;-60
2021/07/17 05:32:11;;;;;;;45.60;26.58;;;;;;;;;;1484930;40;20024;-60
2021/07/17 05:33:13;;;;;;;46.20;26.95;;;;;;;;;;1485081;40;20036;-58
2021/07/17 05:34:14;;;;;;;45.97;27.10;;;;;;;;;;1484820;40;20024;-58
2021/07/17 05:35:16;;;;;;;42.47;26.75;;;;;;;;;;1484932;40;20028;-59
2021/07/17 05:36:17;;;;;;;44.55;27.30;;;;;;;;;;1484818;40;20292;-58
2021/07/17 05:37:19;;;;;;;42.60;26.40;;;;;;;;;;1485079;40;20020;-59
2021/07/17 05:38:20;;;;;;;47.58;29.63;;;;;;;;;;1484918;40;20389;-60
2021/07/17 05:39:21;;;;;;;47.38;28.60;;;;;;;;;;1484839;40;20025;-58
2021/07/17 05:40:23;;;;;;;46.38;28.55;;;;;;;;;;1484801;40;20025;-58
2021/07/17 05:41:25;;;;;;;50.53;29.92;;;;;;;;;;1485083;40;20069;-58
2021/07/17 05:42:25;;;;;;;49.28;28.60;;;;;;;;;;1484809;40;20281;-60
2021/07/17 05:43:27;;;;;;;48.33;30.23;;;;;;;;;;1485074;40;20029;-58
2021/07/17 05:44:30;;;;;;;56.20;29.77;;;;;;;;;;1484867;40;20296;-59
2021/07/17 05:45:32;;;;;;;49.15;28.77;;;;;;;;;;1484962;40;20033;-59
2021/07/17 05:46:33;;;;;;;48.67;28.63;;;;;;;;;;1484748;40;20031;-58
2021/07/17 05:47:35;;;;;;;50.13;29.05;;;;;;;;;;1485042;40;20025;-60
2021/07/17 05:48:36;;;;;;;48.63;28.35;;;;;;;;;;1484828;40;20028;-60
2021/07/17 05:49:37;;;;;;;49.53;30.73;;;;;;;;;;1485040;40;20397;-58
2021/07/17 05:50:38;;;;;;;49.22;29.20;;;;;;;;;;1484828;40;20021;-59
2021/07/17 05:51:40;;;;;;;49.42;29.25;;;;;;;;;;1484956;40;20286;-60
2021/07/17 05:52:41;;;;;;;55.53;30.30;;;;;;;;;;1484854;40;20031;-59
2021/07/17 05:53:42;;;;;;;50.83;29.20;;;;;;;;;;1484945;40;20028;-60
2021/07/17 05:54:43;;;;;;;51.65;29.92;;;;;;;;;;1484758;40;20043;-58
2021/07/17 05:55:45;;;;;;;51.00;29.08;;;;;;;;;;1485095;40;20029;-59
2021/07/17 05:56:46;;;;;;;48.75;28.60;;;;;;;;;;1484766;40;20031;-58
2021/07/17 05:57:48;;;;;;;52.40;29.70;;;;;;;;;;1484846;40;20031;-60
2021/07/17 05:58:48;;;;;;;50.63;28.67;;;;;;;;;;1484842;40;20021;-59
2021/07/17 05:59:52;;;;;;;49.28;30.08;;;;;;;;;;1485030;40;20025;-58
2021/07/17 06:00:52;;;;;;;48.05;29.73;;;;;;;;;;1484796;40;20035;-59